Time;durP1;ratioP1;P1;durP2;ratioP2;P2;SDS_P1;SDS_P2;PMS_P1;PMS_P2;Temp;Humidity;BMP_temperature;BMP_pressure;BME280_temperature;BME280_humidity;BME280_pressure;Samples;Min_cycle;Max_cycle;Signal;HPM_P1;HPM_P2
2023/10/22 00:02:25;;;;;;;8.57;2.85;;;;;;;;;;6304567;22;20085;-42
2023/10/22 00:04:56;;;;;;;15.82;3.53;;;;;;;;;;6314491;22;20122;-43
2023/10/22 00:07:23;;;;;;;9.43;2.70;;;;;;;;;;6299544;22;20010;-41
2023/10/22 00:09:51;;;;;;;8.55;2.78;;;;;;;;;;6307254;22;20038;-42
2023/10/22 00:12:36;;;;;;;8.80;3.33;;;;;;;;;;6302681;22;20098;-41
2023/10/22 00:15:06;;;;;;;10.32;2.60;;;;;;;;;;6305294;22;20060;-42
2023/10/22 00:17:35;;;;;;;9.45;2.65;;;;;;;;;;6305296;22;20015;-41
2023/10/22 00:20:03;;;;;;;11.00;2.73;;;;;;;;;;6305945;22;20027;-41
2023/10/22 00:22:31;;;;;;;7.63;2.65;;;;;;;;;;6301972;22;20018;-43
2023/10/22 00:24:59;;;;;;;11.32;3.38;;;;;;;;;;6308710;22;20018;-41
2023/10/22 00:27:27;;;;;;;9.30;2.75;;;;;;;;;;6290091;22;20018;-41
2023/10/22 00:29:55;;;;;;;12.73;2.78;;;;;;;;;;6311569;22;20014;-43
2023/10/22 00:32:24;;;;;;;6.60;2.50;;;;;;;;;;6293438;22;21142;-41
2023/10/22 00:34:51;;;;;;;9.07;2.85;;;;;;;;;;6307177;22;20015;-43
2023/10/22 00:37:19;;;;;;;9.48;2.72;;;;;;;;;;6295031;22;20015;-42
2023/10/22 00:39:47;;;;;;;8.18;2.35;;;;;;;;;;6308414;22;20025;-41
2023/10/22 00:42:15;;;;;;;10.05;2.70;;;;;;;;;;6298620;22;20018;-42
2023/10/22 00:44:42;;;;;;;8.97;3.00;;;;;;;;;;6307241;22;20041;-41
2023/10/22 00:47:14;;;;;;;7.43;2.42;;;;;;;;;;6296926;22;20039;-41
2023/10/22 00:49:43;;;;;;;9.07;2.92;;;;;;;;;;6305701;22;20094;-41
2023/10/22 00:52:15;;;;;;;11.43;2.88;;;;;;;;;;6307274;22;20090;-43
2023/10/22 00:54:45;;;;;;;9.50;2.67;;;;;;;;;;6300872;22;20011;-41
2023/10/22 00:57:13;;;;;;;11.40;3.13;;;;;;;;;;6287893;22;20388;-41
2023/10/22 00:59:41;;;;;;;13.38;3.08;;;;;;;;;;6291161;22;20083;-41
2023/10/22 01:02:09;;;;;;;9.18;2.63;;;;;;;;;;6306544;22;20364;-41
2023/10/22 01:04:37;;;;;;;9.02;2.58;;;;;;;;;;6305364;22;20022;-41
2023/10/22 01:07:06;;;;;;;13.07;2.58;;;;;;;;;;6293510;22;20019;-41
2023/10/22 01:09:35;;;;;;;10.13;3.03;;;;;;;;;;6311652;22;20011;-41
2023/10/22 01:12:04;;;;;;;6.63;2.22;;;;;;;;;;6300456;22;20612;-41
2023/10/22 01:14:32;;;;;;;9.82;2.97;;;;;;;;;;6310224;22;20015;-42
2023/10/22 01:16:59;;;;;;;8.82;2.90;;;;;;;;;;6302456;22;20029;-41
2023/10/22 01:19:27;;;;;;;8.05;2.42;;;;;;;;;;6286011;22;20033;-43
2023/10/22 01:21:55;;;;;;;8.47;2.60;;;;;;;;;;6308361;22;20396;-42
2023/10/22 01:24:26;;;;;;;10.38;2.92;;;;;;;;;;6314833;22;20082;-42
2023/10/22 01:26:54;;;;;;;7.72;2.95;;;;;;;;;;6308420;22;20030;-41
2023/10/22 01:29:22;;;;;;;9.10;2.65;;;;;;;;;;6304850;22;20038;-41
2023/10/22 01:31:50;;;;;;;7.57;2.92;;;;;;;;;;6302630;22;20018;-42
2023/10/22 01:34:17;;;;;;;8.40;2.60;;;;;;;;;;6302166;22;20015;-41
2023/10/22 01:36:45;;;;;;;14.63;4.78;;;;;;;;;;6303538;22;20015;-42
2023/10/22 01:39:14;;;;;;;7.85;2.63;;;;;;;;;;6308700;22;20280;-41
2023/10/22 01:41:44;;;;;;;8.32;2.70;;;;;;;;;;6296451;22;20019;-41
2023/10/22 01:44:14;;;;;;;9.35;2.97;;;;;;;;;;6299190;22;20015;-41
2023/10/22 01:46:42;;;;;;;11.80;3.33;;;;;;;;;;6309323;22;20076;-41
2023/10/22 01:49:10;;;;;;;10.25;3.08;;;;;;;;;;6287786;22;20021;-41
2023/10/22 01:51:37;;;;;;;10.80;3.03;;;;;;;;;;6291596;22;20022;-41
2023/10/22 01:54:06;;;;;;;7.60;2.58;;;;;;;;;;6302020;22;20075;-41
2023/10/22 01:56:34;;;;;;;9.05;2.15;;;;;;;;;;6309498;22;20437;-41
2023/10/22 01:59:03;;;;;;;10.30;3.03;;;;;;;;;;6276397;22;20015;-41
2023/10/22 02:01:31;;;;;;;10.45;2.80;;;;;;;;;;6297509;22;20030;-41
2023/10/22 02:03:58;;;;;;;8.38;2.60;;;;;;;;;;6306637;22;20019;-41
2023/10/22 02:06:26;;;;;;;7.57;2.13;;;;;;;;;;6319758;22;20098;-41
2023/10/22 02:08:54;;;;;;;8.70;2.40;;;;;;;;;;6298971;22;20017;-41
2023/10/22 02:11:21;;;;;;;8.60;2.53;;;;;;;;;;6315496;22;20011;-41
2023/10/22 02:13:53;;;;;;;13.32;3.65;;;;;;;;;;6304995;22;20397;-41
2023/10/22 02:16:23;;;;;;;10.35;2.80;;;;;;;;;;6286065;22;20071;-41
2023/10/22 02:18:51;;;;;;;9.25;2.53;;;;;;;;;;6316834;22;20038;-42
2023/10/22 02:21:21;;;;;;;9.45;2.50;;;;;;;;;;6307387;22;20093;-41
2023/10/22 02:23:49;;;;;;;9.47;3.20;;;;;;;;;;6298396;22;20787;-42
2023/10/22 02:26:17;;;;;;;7.38;2.63;;;;;;;;;;6315649;22;20015;-41
2023/10/22 02:28:44;;;;;;;9.65;2.72;;;;;;;;;;6313218;22;20010;-42
2023/10/22 02:31:12;;;;;;;10.98;2.97;;;;;;;;;;6311268;22;20015;-41
2023/10/22 02:33:41;;;;;;;8.23;3.10;;;;;;;;;;6284430;22;20010;-41
2023/10/22 02:36:09;;;;;;;11.83;2.90;;;;;;;;;;6306217;22;20015;-41
2023/10/22 02:38:39;;;;;;;10.90;3.00;;;;;;;;;;6286946;22;20015;-41
2023/10/22 02:41:07;;;;;;;12.50;3.33;;;;;;;;;;6318932;22;20018;-43
2023/10/22 02:43:34;;;;;;;11.07;2.78;;;;;;;;;;6311288;22;20019;-41
2023/10/22 02:46:02;;;;;;;8.38;2.83;;;;;;;;;;6311699;22;20081;-42
2023/10/22 02:48:30;;;;;;;7.30;2.43;;;;;;;;;;6302360;22;20431;-41
2023/10/22 02:51:03;;;;;;;7.50;2.75;;;;;;;;;;6299680;22;20456;-42
2023/10/22 02:53:30;;;;;;;11.90;2.67;;;;;;;;;;6313410;22;20030;-41
2023/10/22 02:56:02;;;;;;;8.48;2.45;;;;;;;;;;6310623;22;20390;-41
2023/10/22 02:58:29;;;;;;;8.82;2.90;;;;;;;;;;6278407;22;20015;-41
2023/10/22 03:01:03;;;;;;;9.43;2.53;;;;;;;;;;6313518;22;20400;-41
2023/10/22 03:03:38;;;;;;;7.05;2.55;;;;;;;;;;6303979;22;20011;-41
2023/10/22 03:06:08;;;;;;;11.10;2.90;;;;;;;;;;6308851;22;20089;-42
2023/10/22 03:08:37;;;;;;;8.38;2.80;;;;;;;;;;6301185;22;20026;-42
2023/10/22 03:11:05;;;;;;;12.85;3.33;;;;;;;;;;6310794;22;20011;-44
2023/10/22 03:13:33;;;;;;;10.03;2.70;;;;;;;;;;6307755;22;20017;-44
2023/10/22 03:16:06;;;;;;;9.05;2.92;;;;;;;;;;6299000;22;20010;-41
2023/10/22 03:18:40;;;;;;;8.70;3.00;;;;;;;;;;6316173;22;20017;-41
2023/10/22 03:21:12;;;;;;;13.57;3.67;;;;;;;;;;6286664;22;20672;-44
2023/10/22 03:23:41;;;;;;;11.77;3.10;;;;;;;;;;6301635;22;20015;-42
2023/10/22 03:26:11;;;;;;;12.73;3.83;;;;;;;;;;6303531;22;20015;-43
2023/10/22 03:28:39;;;;;;;10.55;4.38;;;;;;;;;;6316131;22;20021;-43
2023/10/22 03:31:07;;;;;;;13.10;3.45;;;;;;;;;;6303666;22;20023;-43
2023/10/22 03:33:35;;;;;;;12.13;3.22;;;;;;;;;;6315575;22;20034;-43
2023/10/22 03:36:04;;;;;;;11.23;3.35;;;;;;;;;;6299674;22;20011;-42
2023/10/22 03:38:35;;;;;;;7.53;3.00;;;;;;;;;;6313121;22;20521;-41
2023/10/22 03:41:04;;;;;;;9.10;3.13;;;;;;;;;;6304060;22;20034;-41
2023/10/22 03:43:32;;;;;;;10.48;3.33;;;;;;;;;;6311022;22;20018;-45
2023/10/22 03:46:00;;;;;;;8.05;3.08;;;;;;;;;;6309921;22;20025;-41
2023/10/22 03:48:30;;;;;;;10.32;2.90;;;;;;;;;;6306448;22;20011;-41
2023/10/22 03:50:58;;;;;;;11.87;3.47;;;;;;;;;;6313265;22;20015;-41
2023/10/22 03:53:26;;;;;;;9.85;3.40;;;;;;;;;;6304538;22;20019;-42
2023/10/22 03:55:55;;;;;;;10.77;3.63;;;;;;;;;;6304848;22;20646;-41
2023/10/22 03:58:25;;;;;;;10.88;3.17;;;;;;;;;;6310119;22;20014;-42
2023/10/22 04:00:54;;;;;;;8.77;3.42;;;;;;;;;;6315146;22;20021;-41
2023/10/22 04:03:22;;;;;;;11.23;3.53;;;;;;;;;;6306337;22;20021;-41
2023/10/22 04:05:55;;;;;;;11.10;3.58;;;;;;;;;;6306552;22;20045;-41
2023/10/22 04:08:26;;;;;;;9.35;3.35;;;;;;;;;;6310018;22;20037;-42
2023/10/22 04:10:53;;;;;;;11.60;4.00;;;;;;;;;;6315224;22;20010;-41
2023/10/22 04:13:23;;;;;;;10.38;3.72;;;;;;;;;;6303215;22;20086;-42
2023/10/22 04:15:51;;;;;;;9.03;3.27;;;;;;;;;;6312637;22;20019;-41
2023/10/22 04:18:20;;;;;;;13.55;4.20;;;;;;;;;;6304003;22;20018;-42
2023/10/22 04:20:48;;;;;;;10.82;4.15;;;;;;;;;;6313252;22;20036;-41
2023/10/22 04:23:16;;;;;;;10.30;3.75;;;;;;;;;;6303375;22;20015;-41
2023/10/22 04:25:45;;;;;;;8.65;3.70;;;;;;;;;;6308134;22;20010;-41
2023/10/22 04:28:13;;;;;;;11.57;3.53;;;;;;;;;;6311585;22;20094;-41
2023/10/22 04:30:43;;;;;;;11.27;4.40;;;;;;;;;;6307889;22;20533;-41
2023/10/22 04:33:11;;;;;;;11.52;3.70;;;;;;;;;;6311252;22;20014;-41
2023/10/22 04:35:39;;;;;;;7.93;4.13;;;;;;;;;;6300641;22;20042;-41
2023/10/22 04:38:07;;;;;;;9.23;3.88;;;;;;;;;;6313917;22;20026;-41
2023/10/22 04:40:34;;;;;;;10.30;3.83;;;;;;;;;;6275502;22;20464;-42
2023/10/22 04:43:02;;;;;;;12.18;4.65;;;;;;;;;;6304393;22;20058;-42
2023/10/22 04:45:30;;;;;;;11.80;4.57;;;;;;;;;;6301710;22;20067;-41
2023/10/22 04:47:59;;;;;;;15.82;4.63;;;;;;;;;;6307598;22;20014;-41
2023/10/22 04:50:30;;;;;;;12.45;5.32;;;;;;;;;;6294662;22;20022;-42
2023/10/22 04:52:59;;;;;;;10.87;4.63;;;;;;;;;;6296217;22;20021;-41
2023/10/22 04:55:26;;;;;;;12.88;4.55;;;;;;;;;;6299685;22;20019;-41
2023/10/22 04:57:58;;;;;;;12.27;4.65;;;;;;;;;;6299237;22;20087;-43
2023/10/22 05:00:26;;;;;;;11.65;4.63;;;;;;;;;;6309722;22;20021;-45
2023/10/22 05:02:53;;;;;;;14.60;5.72;;;;;;;;;;6293015;22;20349;-41
2023/10/22 05:05:23;;;;;;;11.97;6.50;;;;;;;;;;6300824;22;20392;-42
2023/10/22 05:07:51;;;;;;;11.30;4.80;;;;;;;;;;6301980;22;20021;-41
2023/10/22 05:10:18;;;;;;;11.23;4.22;;;;;;;;;;6287545;22;20019;-41
2023/10/22 05:12:46;;;;;;;12.95;4.88;;;;;;;;;;6306808;22;20015;-42
2023/10/22 05:15:16;;;;;;;10.05;4.50;;;;;;;;;;6283082;22;20014;-41
2023/10/22 05:17:44;;;;;;;14.90;4.50;;;;;;;;;;6302513;22;20353;-42
2023/10/22 05:20:13;;;;;;;11.23;4.63;;;;;;;;;;6294944;22;20011;-41
2023/10/22 05:22:44;;;;;;;11.98;4.43;;;;;;;;;;6306870;22;20027;-42
2023/10/22 05:25:11;;;;;;;13.43;4.45;;;;;;;;;;6296644;22;20011;-41
2023/10/22 05:27:39;;;;;;;11.07;3.72;;;;;;;;;;6297759;22;20010;-41
2023/10/22 05:30:07;;;;;;;10.37;4.30;;;;;;;;;;6301959;22;20453;-41
2023/10/22 05:32:35;;;;;;;8.77;3.88;;;;;;;;;;6305768;22;20011;-41
2023/10/22 05:35:03;;;;;;;8.98;3.75;;;;;;;;;;6298554;22;20010;-41
2023/10/22 05:37:31;;;;;;;11.32;3.60;;;;;;;;;;6307192;22;20580;-41
2023/10/22 05:40:00;;;;;;;10.20;3.65;;;;;;;;;;6306632;22;20438;-41
2023/10/22 05:42:28;;;;;;;10.83;3.60;;;;;;;;;;6301995;22;20018;-43
2023/10/22 05:45:15;;;;;;;9.35;3.33;;;;;;;;;;6301443;22;20014;-41
2023/10/22 05:47:43;;;;;;;10.95;3.47;;;;;;;;;;6304591;22;20372;-41
2023/10/22 05:50:11;;;;;;;8.82;2.90;;;;;;;;;;6309471;22;20011;-41
2023/10/22 05:52:40;;;;;;;12.50;3.08;;;;;;;;;;6303559;22;20015;-41
2023/10/22 05:55:09;;;;;;;10.73;3.73;;;;;;;;;;6303699;22;20399;-42
2023/10/22 05:57:37;;;;;;;10.63;2.90;;;;;;;;;;6305410;22;20022;-41
2023/10/22 06:00:07;;;;;;;8.95;3.13;;;;;;;;;;6297882;22;20089;-41
2023/10/22 06:02:35;;;;;;;10.10;2.72;;;;;;;;;;6302477;22;20021;-41
2023/10/22 06:05:02;;;;;;;9.90;2.67;;;;;;;;;;6313937;22;20014;-41
2023/10/22 06:07:45;;;;;;;8.97;2.67;;;;;;;;;;6306895;22;20019;-41
2023/10/22 06:10:15;;;;;;;8.07;2.22;;;;;;;;;;6296897;22;20042;-41
2023/10/22 06:12:42;;;;;;;11.98;3.42;;;;;;;;;;6310790;22;20022;-42
2023/10/22 06:15:10;;;;;;;11.45;2.60;;;;;;;;;;6297684;22;20683;-42
2023/10/22 06:17:38;;;;;;;9.35;2.50;;;;;;;;;;6313254;22;20067;-41
2023/10/22 06:20:06;;;;;;;24.00;2.60;;;;;;;;;;6298812;22;20015;-42
2023/10/22 06:22:34;;;;;;;8.40;1.90;;;;;;;;;;6308795;22;20015;-42
2023/10/22 06:25:02;;;;;;;9.07;2.10;;;;;;;;;;6305196;22;20011;-43
2023/10/22 06:27:31;;;;;;;6.55;1.80;;;;;;;;;;6303421;22;20014;-41
2023/10/22 06:29:59;;;;;;;7.88;2.22;;;;;;;;;;6309510;22;20426;-41
2023/10/22 06:32:27;;;;;;;7.30;2.17;;;;;;;;;;6298235;22;20018;-41
2023/10/22 06:34:54;;;;;;;9.57;2.97;;;;;;;;;;6309003;22;20693;-41
2023/10/22 06:37:22;;;;;;;7.70;2.10;;;;;;;;;;6297709;22;20369;-41
2023/10/22 06:39:51;;;;;;;7.65;2.20;;;;;;;;;;6306264;22;20022;-42
2023/10/22 06:42:18;;;;;;;7.10;2.25;;;;;;;;;;6301533;22;20163;-41
2023/10/22 06:44:47;;;;;;;8.53;2.60;;;;;;;;;;6308537;22;20018;-41
2023/10/22 06:47:15;;;;;;;8.57;1.98;;;;;;;;;;6305339;22;20084;-41
2023/10/22 06:49:43;;;;;;;9.02;2.25;;;;;;;;;;6292925;22;20021;-42
2023/10/22 06:52:11;;;;;;;6.82;2.20;;;;;;;;;;6311920;22;20015;-41
2023/10/22 06:54:38;;;;;;;8.23;2.50;;;;;;;;;;6300736;22;20525;-42
2023/10/22 06:57:06;;;;;;;14.90;2.40;;;;;;;;;;6298647;22;20021;-44
2023/10/22 06:59:34;;;;;;;9.48;2.92;;;;;;;;;;6300683;22;20014;-41
2023/10/22 07:02:03;;;;;;;11.60;3.20;;;;;;;;;;6305693;22;20198;-42
2023/10/22 07:04:31;;;;;;;11.13;3.50;;;;;;;;;;6306607;22;20026;-41
2023/10/22 07:06:58;;;;;;;7.63;3.05;;;;;;;;;;6297180;22;20015;-43
2023/10/22 07:09:46;;;;;;;10.43;2.60;;;;;;;;;;6304744;22;20022;-41
2023/10/22 07:12:17;;;;;;;10.68;2.78;;;;;;;;;;6306817;22;20015;-43
2023/10/22 07:14:45;;;;;;;13.43;3.38;;;;;;;;;;6304476;22;20099;-41
2023/10/22 07:17:14;;;;;;;11.90;4.15;;;;;;;;;;6299992;22;20817;-42
2023/10/22 07:19:42;;;;;;;15.80;4.00;;;;;;;;;;6275928;22;20019;-41
2023/10/22 07:22:10;;;;;;;7.70;2.93;;;;;;;;;;6309092;22;20021;-41
2023/10/22 07:24:38;;;;;;;10.00;2.85;;;;;;;;;;6285026;22;20045;-41
2023/10/22 07:27:06;;;;;;;7.70;3.00;;;;;;;;;;6301280;22;20446;-41
2023/10/22 07:29:34;;;;;;;7.32;2.60;;;;;;;;;;6303779;22;20410;-42
2023/10/22 07:32:02;;;;;;;9.80;2.10;;;;;;;;;;6306540;22;20014;-41
2023/10/22 07:34:31;;;;;;;9.57;2.37;;;;;;;;;;6304581;22;20382;-41
2023/10/22 07:36:59;;;;;;;8.35;1.58;;;;;;;;;;6301412;22;20022;-45
2023/10/22 07:39:26;;;;;;;7.82;1.73;;;;;;;;;;6305590;22;20018;-41
2023/10/22 07:41:54;;;;;;;11.52;1.95;;;;;;;;;;6300886;22;20441;-41
2023/10/22 07:44:22;;;;;;;5.65;1.30;;;;;;;;;;6312342;22;20123;-41
2023/10/22 07:46:49;;;;;;;6.60;1.20;;;;;;;;;;6292796;22;20019;-41
2023/10/22 07:49:20;;;;;;;5.55;0.90;;;;;;;;;;6307576;22;20094;-42
2023/10/22 07:51:49;;;;;;;7.50;0.90;;;;;;;;;;6299923;22;20022;-41
2023/10/22 07:54:19;;;;;;;7.97;1.20;;;;;;;;;;6298219;22;20018;-42
2023/10/22 07:56:47;;;;;;;6.38;1.10;;;;;;;;;;6304674;22;20018;-41
2023/10/22 07:59:15;;;;;;;5.03;0.60;;;;;;;;;;6307114;22;20011;-41
2023/10/22 08:01:42;;;;;;;5.40;0.98;;;;;;;;;;6296962;22;20026;-41
2023/10/22 08:04:10;;;;;;;5.22;1.10;;;;;;;;;;6305533;22;20019;-41
2023/10/22 08:06:38;;;;;;;7.40;1.27;;;;;;;;;;6306193;22;20468;-41
2023/10/22 08:09:07;;;;;;;5.50;1.17;;;;;;;;;;6299946;22;20011;-41
2023/10/22 08:11:37;;;;;;;5.17;1.20;;;;;;;;;;6305359;22;20018;-42
2023/10/22 08:14:04;;;;;;;4.97;1.05;;;;;;;;;;6280567;22;20090;-41
2023/10/22 08:16:32;;;;;;;6.72;1.17;;;;;;;;;;6296330;22;20022;-41
2023/10/22 08:19:00;;;;;;;4.88;0.77;;;;;;;;;;6303619;22;20064;-43
2023/10/22 08:21:27;;;;;;;5.30;1.58;;;;;;;;;;6296805;22;20038;-41
2023/10/22 08:23:55;;;;;;;5.37;1.20;;;;;;;;;;6308338;22;20018;-42
2023/10/22 08:26:25;;;;;;;5.50;1.10;;;;;;;;;;6300950;22;20043;-41
2023/10/22 08:28:54;;;;;;;7.63;1.65;;;;;;;;;;6305239;22;20018;-42
2023/10/22 08:31:22;;;;;;;4.22;0.98;;;;;;;;;;6305333;22;20015;-41
2023/10/22 08:33:50;;;;;;;9.93;1.65;;;;;;;;;;6293133;22;20014;-42
2023/10/22 08:36:18;;;;;;;5.67;1.27;;;;;;;;;;6303475;22;20541;-42
2023/10/22 08:38:46;;;;;;;4.45;1.00;;;;;;;;;;6299014;22;20049;-41
2023/10/22 08:41:17;;;;;;;5.07;1.30;;;;;;;;;;6294013;22;20069;-43
2023/10/22 08:43:46;;;;;;;9.10;1.30;;;;;;;;;;6302858;22;20068;-42
2023/10/22 08:46:16;;;;;;;5.60;0.98;;;;;;;;;;6298558;22;20019;-42
2023/10/22 08:48:45;;;;;;;5.20;1.10;;;;;;;;;;6303149;22;20697;-43
2023/10/22 08:51:13;;;;;;;5.80;1.17;;;;;;;;;;6292283;22;20413;-42
2023/10/22 08:53:40;;;;;;;7.68;0.85;;;;;;;;;;6302733;22;20042;-43
2023/10/22 08:56:08;;;;;;;6.57;1.05;;;;;;;;;;6274876;22;20026;-42
2023/10/22 08:58:36;;;;;;;5.80;0.93;;;;;;;;;;6294900;22;20046;-42
2023/10/22 09:01:06;;;;;;;6.93;0.70;;;;;;;;;;6306870;22;20522;-41
2023/10/22 09:03:35;;;;;;;5.97;0.68;;;;;;;;;;6289232;22;20094;-42
2023/10/22 09:06:05;;;;;;;7.00;1.35;;;;;;;;;;6304460;22;20394;-41
2023/10/22 09:08:45;;;;;;;5.10;0.85;;;;;;;;;;6295534;22;20868;-41
2023/10/22 09:11:13;;;;;;;6.00;1.08;;;;;;;;;;6304050;22;20015;-43
2023/10/22 09:13:41;;;;;;;4.20;0.60;;;;;;;;;;6292781;22;20015;-41
2023/10/22 09:16:11;;;;;;;8.02;0.90;;;;;;;;;;6303636;22;20011;-42
2023/10/22 09:18:45;;;;;;;4.82;0.60;;;;;;;;;;6291902;22;20021;-42
2023/10/22 09:21:13;;;;;;;9.27;1.25;;;;;;;;;;6301865;22;20098;-41
2023/10/22 09:23:41;;;;;;;8.02;1.02;;;;;;;;;;6301544;22;20019;-41
2023/10/22 09:26:10;;;;;;;5.93;1.00;;;;;;;;;;6307918;22;20065;-41
2023/10/22 09:28:38;;;;;;;5.63;0.85;;;;;;;;;;6305834;22;20046;-41
2023/10/22 09:31:06;;;;;;;7.53;0.98;;;;;;;;;;6305000;22;20037;-42
2023/10/22 09:33:36;;;;;;;4.30;0.90;;;;;;;;;;6299745;22;20503;-41
2023/10/22 09:36:05;;;;;;;4.80;1.08;;;;;;;;;;6299053;22;20015;-41
2023/10/22 09:38:42;;;;;;;5.13;0.70;;;;;;;;;;6301345;22;20014;-41
2023/10/22 09:41:14;;;;;;;5.35;0.80;;;;;;;;;;6305763;22;20072;-41
2023/10/22 09:43:42;;;;;;;4.97;0.90;;;;;;;;;;6300686;22;20019;-41
2023/10/22 09:46:10;;;;;;;5.05;0.70;;;;;;;;;;6305480;22;20397;-41
2023/10/22 09:48:41;;;;;;;6.38;0.70;;;;;;;;;;6295500;22;20017;-41
2023/10/22 09:51:10;;;;;;;5.50;0.70;;;;;;;;;;6292565;22;20022;-42
2023/10/22 09:53:40;;;;;;;4.43;0.88;;;;;;;;;;6303234;22;20452;-41
2023/10/22 09:56:09;;;;;;;7.20;0.80;;;;;;;;;;6293633;22;20353;-42
2023/10/22 09:58:42;;;;;;;4.30;0.68;;;;;;;;;;6297779;22;20019;-41
2023/10/22 10:01:14;;;;;;;6.97;0.80;;;;;;;;;;6298920;22;20086;-43
2023/10/22 10:03:43;;;;;;;4.03;0.57;;;;;;;;;;6304389;22;20024;-41
2023/10/22 10:06:11;;;;;;;4.13;0.73;;;;;;;;;;6299833;22;20022;-42
2023/10/22 10:08:40;;;;;;;3.55;0.60;;;;;;;;;;6291852;22;20426;-42
2023/10/22 10:11:09;;;;;;;3.55;1.00;;;;;;;;;;6305782;22;20014;-42
2023/10/22 10:13:37;;;;;;;6.40;0.93;;;;;;;;;;6304781;22;20017;-41
2023/10/22 10:16:05;;;;;;;6.47;0.80;;;;;;;;;;6303634;22;20163;-41
2023/10/22 10:18:51;;;;;;;5.05;1.15;;;;;;;;;;6298315;22;20018;-41
2023/10/22 10:21:39;;;;;;;4.40;1.00;;;;;;;;;;6301087;22;20053;-42
2023/10/22 10:24:18;;;;;;;4.18;0.55;;;;;;;;;;6309143;22;20015;-41
2023/10/22 10:26:46;;;;;;;6.07;1.10;;;;;;;;;;6300532;22;20015;-42
2023/10/22 10:29:14;;;;;;;5.67;0.90;;;;;;;;;;6268900;22;20015;-43
2023/10/22 10:31:45;;;;;;;6.90;1.00;;;;;;;;;;6310908;22;20068;-43
2023/10/22 10:34:20;;;;;;;6.70;0.57;;;;;;;;;;6300778;22;20015;-44
2023/10/22 10:36:51;;;;;;;4.60;0.80;;;;;;;;;;6301977;22;20043;-42
2023/10/22 10:39:41;;;;;;;5.95;1.30;;;;;;;;;;6300565;22;20022;-41
2023/10/22 10:42:09;;;;;;;8.63;0.60;;;;;;;;;;6297376;22;20071;-42
2023/10/22 10:44:51;;;;;;;6.38;0.50;;;;;;;;;;6306943;22;20014;-42
2023/10/22 10:47:31;;;;;;;6.03;1.00;;;;;;;;;;6272582;22;20021;-42
2023/10/22 10:50:02;;;;;;;8.10;1.30;;;;;;;;;;6299533;22;20098;-41
2023/10/22 10:52:31;;;;;;;4.85;1.00;;;;;;;;;;6305143;22;20015;-41
2023/10/22 10:55:08;;;;;;;5.03;0.80;;;;;;;;;;6297410;22;20035;-41
2023/10/22 10:57:36;;;;;;;4.72;0.50;;;;;;;;;;6306258;22;20068;-41
2023/10/22 11:00:05;;;;;;;4.40;0.50;;;;;;;;;;6300394;22;20017;-45
2023/10/22 11:02:46;;;;;;;6.18;0.80;;;;;;;;;;6306487;22;20018;-41
2023/10/22 11:05:19;;;;;;;6.43;1.00;;;;;;;;;;6308117;22;20651;-42
2023/10/22 11:07:47;;;;;;;3.90;0.60;;;;;;;;;;6305530;22;20679;-41
2023/10/22 11:10:17;;;;;;;7.95;0.75;;;;;;;;;;6296762;22;20019;-41
2023/10/22 11:12:45;;;;;;;3.92;0.60;;;;;;;;;;6309784;22;20027;-44
2023/10/22 11:15:13;;;;;;;5.47;0.52;;;;;;;;;;6291746;22;20325;-42
2023/10/22 11:17:41;;;;;;;3.22;0.52;;;;;;;;;;6307701;22;20101;-40
2023/10/22 11:20:09;;;;;;;4.47;0.80;;;;;;;;;;6284397;22;20794;-41
2023/10/22 11:22:37;;;;;;;3.53;0.50;;;;;;;;;;6305629;22;20076;-40
2023/10/22 11:25:07;;;;;;;4.97;0.50;;;;;;;;;;6296854;22;20015;-40
2023/10/22 11:27:38;;;;;;;5.15;0.90;;;;;;;;;;6303490;22;20355;-40
2023/10/22 11:30:06;;;;;;;5.45;0.30;;;;;;;;;;6309331;22;20045;-40
2023/10/22 11:32:35;;;;;;;4.33;0.70;;;;;;;;;;6293443;22;20007;-41
2023/10/22 11:35:04;;;;;;;5.05;0.43;;;;;;;;;;6309652;22;20011;-40
2023/10/22 11:37:37;;;;;;;5.82;0.40;;;;;;;;;;6295089;22;20406;-41
2023/10/22 11:40:20;;;;;;;4.93;0.57;;;;;;;;;;6307266;22;20014;-40
2023/10/22 11:42:51;;;;;;;3.33;0.57;;;;;;;;;;6307667;22;20015;-42
2023/10/22 11:45:20;;;;;;;2.93;0.40;;;;;;;;;;6272193;22;20018;-41
2023/10/22 11:47:47;;;;;;;2.58;0.30;;;;;;;;;;6283498;22;20405;-41
2023/10/22 11:50:16;;;;;;;6.47;0.50;;;;;;;;;;6287600;22;20110;-42
2023/10/22 11:52:51;;;;;;;4.60;0.50;;;;;;;;;;6297223;22;20011;-41
2023/10/22 11:55:20;;;;;;;3.95;0.40;;;;;;;;;;6298297;22;20015;-41
2023/10/22 11:58:04;;;;;;;3.70;0.40;;;;;;;;;;6284392;22;20065;-41
2023/10/22 12:00:32;;;;;;;4.72;0.70;;;;;;;;;;6306921;22;20046;-40
2023/10/22 12:03:00;;;;;;;5.00;0.70;;;;;;;;;;6288046;22;20042;-41
2023/10/22 12:05:27;;;;;;;3.85;0.40;;;;;;;;;;6296303;22;20018;-41
2023/10/22 12:07:55;;;;;;;6.00;0.75;;;;;;;;;;6297937;22;20026;-40
2023/10/22 12:10:23;;;;;;;3.63;0.57;;;;;;;;;;6293527;22;20449;-43
2023/10/22 12:12:53;;;;;;;4.95;0.60;;;;;;;;;;6308075;22;20026;-40
2023/10/22 12:15:22;;;;;;;5.93;0.60;;;;;;;;;;6260519;22;20986;-41
2023/10/22 12:17:50;;;;;;;4.18;0.57;;;;;;;;;;6287108;22;20018;-40
2023/10/22 12:20:18;;;;;;;5.10;0.45;;;;;;;;;;6305046;22;20117;-41
2023/10/22 12:22:45;;;;;;;3.20;0.50;;;;;;;;;;6292792;22;20019;-40
2023/10/22 12:25:14;;;;;;;2.83;0.30;;;;;;;;;;6300420;22;20014;-41
2023/10/22 12:27:41;;;;;;;3.65;0.40;;;;;;;;;;6277269;22;20364;-41
2023/10/22 12:30:10;;;;;;;2.55;0.35;;;;;;;;;;6301800;22;20010;-41
2023/10/22 12:32:39;;;;;;;7.05;0.85;;;;;;;;;;6293460;22;20064;-41
2023/10/22 12:35:07;;;;;;;2.70;0.30;;;;;;;;;;6305144;22;20023;-41
2023/10/22 12:37:35;;;;;;;4.57;0.50;;;;;;;;;;6285530;22;20311;-41
2023/10/22 12:40:05;;;;;;;3.67;0.73;;;;;;;;;;6307929;22;20029;-40
2023/10/22 12:42:33;;;;;;;3.80;0.40;;;;;;;;;;6263856;22;20015;-41
2023/10/22 12:45:02;;;;;;;7.53;0.52;;;;;;;;;;6299378;22;20042;-42
2023/10/22 12:47:29;;;;;;;3.47;0.30;;;;;;;;;;6306508;22;20057;-40
2023/10/22 12:50:01;;;;;;;3.88;0.35;;;;;;;;;;6304849;22;20046;-40
2023/10/22 12:52:29;;;;;;;8.80;0.77;;;;;;;;;;6304092;22;20494;-41
2023/10/22 12:54:57;;;;;;;4.93;0.60;;;;;;;;;;6295424;22;20014;-42
2023/10/22 12:57:25;;;;;;;3.10;0.40;;;;;;;;;;6317381;22;20011;-41
2023/10/22 12:59:55;;;;;;;3.47;0.43;;;;;;;;;;6262097;22;20080;-40
2023/10/22 13:02:23;;;;;;;3.28;0.50;;;;;;;;;;6305920;22;20014;-42
2023/10/22 13:04:50;;;;;;;6.35;0.50;;;;;;;;;;6280317;22;20040;-40
2023/10/22 13:07:21;;;;;;;5.38;0.40;;;;;;;;;;6300107;22;20019;-41
2023/10/22 13:09:49;;;;;;;4.57;0.40;;;;;;;;;;6304946;22;20014;-43
2023/10/22 13:12:16;;;;;;;2.57;0.30;;;;;;;;;;6296266;22;20018;-41
2023/10/22 13:14:44;;;;;;;4.30;0.65;;;;;;;;;;6306665;22;20014;-41
2023/10/22 13:17:12;;;;;;;4.47;0.50;;;;;;;;;;6294112;22;20015;-42
2023/10/22 13:19:41;;;;;;;4.40;0.50;;;;;;;;;;6309417;22;20030;-41
2023/10/22 13:22:11;;;;;;;6.53;1.90;;;;;;;;;;6301225;22;20469;-41
2023/10/22 13:24:40;;;;;;;5.17;0.50;;;;;;;;;;6291012;22;20109;-41
2023/10/22 13:27:08;;;;;;;3.53;0.50;;;;;;;;;;6308669;22;20019;-41
2023/10/22 13:29:36;;;;;;;4.30;1.23;;;;;;;;;;6302779;22;20189;-40
2023/10/22 13:32:04;;;;;;;5.13;0.50;;;;;;;;;;6303272;22;20015;-41
2023/10/22 13:34:32;;;;;;;4.20;0.70;;;;;;;;;;6314708;22;20021;-40
2023/10/22 13:37:04;;;;;;;6.93;0.60;;;;;;;;;;6308886;22;20438;-41
2023/10/22 13:39:31;;;;;;;7.20;0.85;;;;;;;;;;6274654;22;20425;-41
2023/10/22 13:42:00;;;;;;;7.20;1.05;;;;;;;;;;6304895;22;20019;-42
2023/10/22 13:44:28;;;;;;;5.80;0.75;;;;;;;;;;6305311;22;20014;-40
2023/10/22 13:46:56;;;;;;;8.05;0.80;;;;;;;;;;6288525;22;20084;-42
2023/10/22 13:49:23;;;;;;;4.93;0.40;;;;;;;;;;6282445;22;20060;-41
2023/10/22 13:51:51;;;;;;;5.22;0.50;;;;;;;;;;6314929;22;20011;-40
2023/10/22 13:54:19;;;;;;;5.20;0.80;;;;;;;;;;6285041;22;20015;-43
2023/10/22 13:56:46;;;;;;;3.80;0.52;;;;;;;;;;6308582;22;20231;-40
2023/10/22 13:59:16;;;;;;;6.60;0.85;;;;;;;;;;6283675;22;20738;-41
2023/10/22 14:01:44;;;;;;;7.53;0.70;;;;;;;;;;6279783;22;20034;-40
2023/10/22 14:04:12;;;;;;;6.57;0.60;;;;;;;;;;6272062;22;20015;-41
2023/10/22 14:06:41;;;;;;;4.05;0.65;;;;;;;;;;6309002;22;20035;-42
2023/10/22 14:09:10;;;;;;;4.32;0.70;;;;;;;;;;6294866;22;20018;-42
2023/10/22 14:11:38;;;;;;;5.68;1.10;;;;;;;;;;6303352;22;20019;-41
2023/10/22 14:14:06;;;;;;;4.60;0.70;;;;;;;;;;6293558;22;20019;-41
2023/10/22 14:16:37;;;;;;;5.30;0.80;;;;;;;;;;6300888;22;20010;-41
2023/10/22 14:19:05;;;;;;;7.05;0.60;;;;;;;;;;6301479;22;20294;-42
2023/10/22 14:21:33;;;;;;;3.97;0.65;;;;;;;;;;6274118;22;20018;-41
2023/10/22 14:24:02;;;;;;;6.22;0.60;;;;;;;;;;6304400;22;20021;-41
2023/10/22 14:26:30;;;;;;;8.10;0.60;;;;;;;;;;6306692;22;20025;-40
2023/10/22 14:28:58;;;;;;;4.50;0.60;;;;;;;;;;6295625;22;20018;-40
2023/10/22 14:31:25;;;;;;;7.63;0.52;;;;;;;;;;6300762;22;20015;-40
2023/10/22 14:33:54;;;;;;;5.13;0.50;;;;;;;;;;6305410;22;20029;-41
2023/10/22 14:36:22;;;;;;;6.30;1.05;;;;;;;;;;6295592;22;20458;-41
2023/10/22 14:38:50;;;;;;;6.00;0.70;;;;;;;;;;6305544;22;20508;-40
2023/10/22 14:41:17;;;;;;;4.78;0.52;;;;;;;;;;6290643;22;20015;-41
2023/10/22 14:43:45;;;;;;;5.55;0.60;;;;;;;;;;6248559;22;20018;-42
2023/10/22 14:46:13;;;;;;;8.10;1.00;;;;;;;;;;6258795;22;20011;-40
2023/10/22 14:48:42;;;;;;;5.38;0.60;;;;;;;;;;6298868;22;20426;-40
2023/10/22 14:51:15;;;;;;;7.07;0.67;;;;;;;;;;6300007;22;20379;-42
2023/10/22 14:53:44;;;;;;;7.03;0.70;;;;;;;;;;6297402;22;20034;-42